Kine — C6WT4 — position and weather

sailwx.info

Track history (hours):
 
Tides and Currents Weather Stations Pressure Air Temp Water Temp Dewpoint Dewpoint Depression Visibility Wind Speed Wind Dir Waves Ship Positions

Kine

Last reported at 2014-Oct-23 08:33 UTC. Time now 2014-Oct-23 08:51 UTC.
Position N 66°23' E 011°57'.

Length 89 m; draft 3.3 m.

Type: Cargo ship. MMSI: 311117000.

Date/timePositionNaut miles runAvg speedWind from/ knotsBaromVisibWave heightAir tempDewpointWater temp
2014-Oct-23 08:33N 66°23' E 011°57'5 4.9
2014-Oct-23 07:33N 66°28' E 011°53'4 4.2
2014-Oct-23 06:33N 66°32' E 011°54'5 4.8
2014-Oct-23 05:33N 66°36' E 011°58'81 6.1
2014-Oct-22 16:09N 67°41' E 014°07'3 5.3
2014-Oct-22 15:30N 67°43' E 014°12'  
2014-Oct-19 22:06N 66°36' E 011°55'610.0
2014-Oct-19 21:32N 66°31' E 011°47'  
2014-Oct-17 01:32N 59°10' E 005°02'9 9.2
2014-Oct-17 00:33N 59°08' E 005°19'12 9.2
2014-Oct-16 23:18N 59°20' E 005°19'1 0.1
2014-Oct-16 10:20N 59°20' E 005°18'0 0.1
2014-Oct-16 08:24N 59°20' E 005°18'7 7.4
2014-Oct-16 07:27N 59°13' E 005°21'6 6.3
2014-Oct-16 06:33N 59°07' E 005°21'7 6.9
2014-Oct-16 05:33N 59°01' E 005°20'8 8.3
2014-Oct-16 04:33N 58°52' E 005°23'9 9.0
2014-Oct-16 03:33N 58°44' E 005°27'20 9.8
2014-Oct-16 01:32N 58°26' E 005°45'1010.6
2014-Oct-16 00:33N 58°18' E 005°58'1110.7
2014-Oct-15 23:33N 58°10' E 006°11'121 7.9
2014-Oct-15 08:13N 56°12' E 007°02'6 8.9
2014-Oct-15 07:33N 56°06' E 007°06'9 9.3
2014-Oct-15 06:33N 55°58' E 007°11'10 9.6
2014-Oct-15 05:33N 55°49' E 007°17'1210.0
2014-Oct-15 04:19N 55°37' E 007°24'8 9.9
2014-Oct-15 03:33N 55°31' E 007°32'10 9.7
2014-Oct-15 02:33N 55°26' E 007°47'9 9.1
2014-Oct-15 01:33N 55°25' E 008°03'9 9.1
2014-Oct-15 00:33N 55°27' E 008°18'4 3.8
2014-Oct-14 23:29N 55°29' E 008°25'0 0.0
2014-Oct-14 22:32N 55°29' E 008°25'0 0.0
2014-Oct-14 21:32N 55°29' E 008°25'0 0.0
2014-Oct-14 20:20N 55°29' E 008°25'0 0.0
2014-Oct-14 19:32N 55°29' E 008°25'0 0.0
2014-Oct-14 18:32N 55°29' E 008°25'0 0.0
2014-Oct-14 17:23N 55°29' E 008°25'0 0.0
2014-Oct-14 16:32N 55°29' E 008°25'0 0.0
2014-Oct-14 15:20N 55°29' E 008°25'0 0.0
2014-Oct-14 14:26N 55°29' E 008°25'0 0.0
2014-Oct-14 13:23N 55°29' E 008°25'0 0.0
2014-Oct-14 12:23N 55°29' E 008°25'0 0.0
2014-Oct-14 11:29N 55°29' E 008°25'0 0.0
2014-Oct-14 10:14N 55°29' E 008°25'0 0.0
2014-Oct-14 09:32N 55°29' E 008°25'0 0.0
2014-Oct-14 08:32N 55°29' E 008°25'0 0.0
2014-Oct-14 07:32N 55°29' E 008°25'0 0.0
2014-Oct-14 06:17N 55°29' E 008°25'0 0.0
2014-Oct-14 05:32N 55°29' E 008°25'0 0.0
2014-Oct-14 04:32N 55°29' E 008°25'0 0.0
2014-Oct-14 03:20N 55°29' E 008°25'0 0.0
2014-Oct-14 02:32N 55°29' E 008°25'0 0.0
2014-Oct-14 01:23N 55°29' E 008°25'0 0.0
2014-Oct-14 00:26N 55°29' E 008°25'0 0.0
2014-Oct-13 23:23N 55°29' E 008°25'0 0.0
2014-Oct-13 22:23N 55°29' E 008°25'0 0.0
2014-Oct-13 21:29N 55°29' E 008°25'0 0.0
2014-Oct-13 20:29N 55°29' E 008°25'0 0.0
2014-Oct-13 19:17N 55°29' E 008°25'0 0.0
2014-Oct-13 18:26N 55°29' E 008°25'0 0.0
2014-Oct-13 17:17N 55°29' E 008°25'0 0.0
2014-Oct-13 16:29N 55°29' E 008°25'0 0.0
2014-Oct-13 15:32N 55°29' E 008°25'0 0.0
2014-Oct-13 14:32N 55°29' E 008°25'0 0.0
2014-Oct-13 13:20N 55°29' E 008°25'0 0.0
2014-Oct-13 12:32N 55°29' E 008°25'0 0.0
2014-Oct-13 11:20N 55°29' E 008°25'0 0.0
2014-Oct-13 10:26N 55°29' E 008°25'0 0.0
2014-Oct-13 09:26N 55°29' E 008°25'  
Track history (hours):
 
Tides and Currents Weather Stations Pressure Air Temp Water Temp Dewpoint Dewpoint Depression Visibility Wind Speed Wind Dir Waves Ship Positions

Kine

Last reported at 2014-Oct-23 08:33 UTC. Time now 2014-Oct-23 08:51 UTC.
Position N 66°23' E 011°57'.

Length 89 m; draft 3.3 m.

Type: Cargo ship. MMSI: 311117000.

Date/timePositionNaut miles runAvg speedWind from/ knotsBaromVisibWave heightAir tempDewpointWater temp
2014-Oct-23 08:33N 66°23' E 011°57'5 4.9
2014-Oct-23 07:33N 66°28' E 011°53'4 4.2
2014-Oct-23 06:33N 66°32' E 011°54'5 4.8
2014-Oct-23 05:33N 66°36' E 011°58'81 6.1
2014-Oct-22 16:09N 67°41' E 014°07'3 5.3
2014-Oct-22 15:30N 67°43' E 014°12'  
2014-Oct-19 22:06N 66°36' E 011°55'610.0
2014-Oct-19 21:32N 66°31' E 011°47'  
2014-Oct-17 01:32N 59°10' E 005°02'9 9.2
2014-Oct-17 00:33N 59°08' E 005°19'12 9.2
2014-Oct-16 23:18N 59°20' E 005°19'1 0.1
2014-Oct-16 10:20N 59°20' E 005°18'0 0.1
2014-Oct-16 08:24N 59°20' E 005°18'7 7.4
2014-Oct-16 07:27N 59°13' E 005°21'6 6.3
2014-Oct-16 06:33N 59°07' E 005°21'7 6.9
2014-Oct-16 05:33N 59°01' E 005°20'8 8.3
2014-Oct-16 04:33N 58°52' E 005°23'9 9.0
2014-Oct-16 03:33N 58°44' E 005°27'20 9.8
2014-Oct-16 01:32N 58°26' E 005°45'1010.6
2014-Oct-16 00:33N 58°18' E 005°58'1110.7
2014-Oct-15 23:33N 58°10' E 006°11'121 7.9
2014-Oct-15 08:13N 56°12' E 007°02'6 8.9
2014-Oct-15 07:33N 56°06' E 007°06'9 9.3
2014-Oct-15 06:33N 55°58' E 007°11'10 9.6
2014-Oct-15 05:33N 55°49' E 007°17'1210.0
2014-Oct-15 04:19N 55°37' E 007°24'8 9.9
2014-Oct-15 03:33N 55°31' E 007°32'10 9.7
2014-Oct-15 02:33N 55°26' E 007°47'9 9.1
2014-Oct-15 01:33N 55°25' E 008°03'9 9.1
2014-Oct-15 00:33N 55°27' E 008°18'4 3.8
2014-Oct-14 23:29N 55°29' E 008°25'0 0.0
2014-Oct-14 22:32N 55°29' E 008°25'0 0.0
2014-Oct-14 21:32N 55°29' E 008°25'0 0.0
2014-Oct-14 20:20N 55°29' E 008°25'0 0.0
2014-Oct-14 19:32N 55°29' E 008°25'0 0.0
2014-Oct-14 18:32N 55°29' E 008°25'0 0.0
2014-Oct-14 17:23N 55°29' E 008°25'0 0.0
2014-Oct-14 16:32N 55°29' E 008°25'0 0.0
2014-Oct-14 15:20N 55°29' E 008°25'0 0.0
2014-Oct-14 14:26N 55°29' E 008°25'0 0.0
2014-Oct-14 13:23N 55°29' E 008°25'0 0.0
2014-Oct-14 12:23N 55°29' E 008°25'0 0.0
2014-Oct-14 11:29N 55°29' E 008°25'0 0.0
2014-Oct-14 10:14N 55°29' E 008°25'0 0.0
2014-Oct-14 09:32N 55°29' E 008°25'0 0.0
2014-Oct-14 08:32N 55°29' E 008°25'0 0.0
2014-Oct-14 07:32N 55°29' E 008°25'0 0.0
2014-Oct-14 06:17N 55°29' E 008°25'0 0.0
2014-Oct-14 05:32N 55°29' E 008°25'0 0.0
2014-Oct-14 04:32N 55°29' E 008°25'0 0.0
2014-Oct-14 03:20N 55°29' E 008°25'0 0.0
2014-Oct-14 02:32N 55°29' E 008°25'0 0.0
2014-Oct-14 01:23N 55°29' E 008°25'0 0.0
2014-Oct-14 00:26N 55°29' E 008°25'0 0.0
2014-Oct-13 23:23N 55°29' E 008°25'0 0.0
2014-Oct-13 22:23N 55°29' E 008°25'0 0.0
2014-Oct-13 21:29N 55°29' E 008°25'0 0.0
2014-Oct-13 20:29N 55°29' E 008°25'0 0.0
2014-Oct-13 19:17N 55°29' E 008°25'0 0.0
2014-Oct-13 18:26N 55°29' E 008°25'0 0.0
2014-Oct-13 17:17N 55°29' E 008°25'0 0.0
2014-Oct-13 16:29N 55°29' E 008°25'0 0.0
2014-Oct-13 15:32N 55°29' E 008°25'0 0.0
2014-Oct-13 14:32N 55°29' E 008°25'0 0.0
2014-Oct-13 13:20N 55°29' E 008°25'0 0.0
2014-Oct-13 12:32N 55°29' E 008°25'0 0.0
2014-Oct-13 11:20N 55°29' E 008°25'0 0.0
2014-Oct-13 10:26N 55°29' E 008°25'0 0.0
2014-Oct-13 09:26N 55°29' E 008°25'  

Dump ship's entire track history